Time;durP1;ratioP1;P1;durP2;ratioP2;P2;SDS_P1;SDS_P2;PMS_P1;PMS_P2;Temp;Humidity;BMP_temperature;BMP_pressure;BME280_temperature;BME280_humidity;BME280_pressure;Samples;Min_cycle;Max_cycle;Signal;HPM_P1;HPM_P2
2021/04/17 00:01:43;;;;;;;15.30;9.83;;;1.80;90.20;;;;;;5082445;28;20545;-55
2021/04/17 00:04:12;;;;;;;13.40;8.90;;;1.70;90.30;;;;;;5086470;28;20446;-54
2021/04/17 00:06:38;;;;;;;14.27;8.77;;;1.70;90.30;;;;;;5087094;28;20422;-55
2021/04/17 00:09:10;;;;;;;14.60;8.90;;;1.60;90.40;;;;;;5076544;28;21027;-53
2021/04/17 00:11:36;;;;;;;13.53;9.03;;;1.50;90.50;;;;;;5083874;28;21001;-54
2021/04/17 00:14:06;;;;;;;13.17;8.83;;;1.50;90.60;;;;;;5077656;28;20469;-52
2021/04/17 00:16:32;;;;;;;16.20;9.13;;;1.40;90.80;;;;;;5090467;28;20432;-53
2021/04/17 00:18:57;;;;;;;17.10;9.43;;;1.30;90.90;;;;;;5074281;28;20434;-56
2021/04/17 00:21:24;;;;;;;13.17;9.00;;;1.30;91.00;;;;;;5081931;28;20209;-55
2021/04/17 00:23:49;;;;;;;14.97;8.90;;;1.30;91.20;;;;;;5082373;28;20744;-56
2021/04/17 00:26:15;;;;;;;14.50;8.90;;;1.30;91.30;;;;;;5085453;28;20509;-57
2021/04/17 00:28:41;;;;;;;13.87;8.73;;;1.20;91.40;;;;;;5090553;28;20186;-53
2021/04/17 00:31:06;;;;;;;14.00;9.20;;;1.20;91.50;;;;;;5091901;28;20701;-54
2021/04/17 00:33:32;;;;;;;13.93;9.33;;;1.20;91.60;;;;;;5091821;28;20218;-57
2021/04/17 00:35:58;;;;;;;17.40;9.77;;;1.10;91.60;;;;;;5089465;28;20246;-58
2021/04/17 00:38:24;;;;;;;13.13;8.30;;;1.10;91.70;;;;;;5093344;28;20427;-55
2021/04/17 00:40:50;;;;;;;13.30;9.30;;;1.10;91.70;;;;;;5093383;28;20212;-57
2021/04/17 00:43:16;;;;;;;14.57;9.20;;;1.00;91.90;;;;;;5090739;28;20189;-55
2021/04/17 00:45:41;;;;;;;15.80;9.87;;;1.00;91.90;;;;;;5081255;28;20194;-55
2021/04/17 00:48:07;;;;;;;14.73;8.77;;;1.00;92.00;;;;;;5082979;28;20434;-54
2021/04/17 00:50:34;;;;;;;13.07;8.37;;;0.90;92.20;;;;;;5085282;28;20826;-57
2021/04/17 00:53:00;;;;;;;16.27;9.83;;;0.90;92.30;;;;;;5088007;28;20547;-53
2021/04/17 00:55:25;;;;;;;15.90;9.53;;;0.90;92.50;;;;;;5089285;28;20467;-55
2021/04/17 00:57:51;;;;;;;16.63;9.17;;;0.90;92.60;;;;;;5089569;28;20425;-56
2021/04/17 01:00:18;;;;;;;17.00;9.83;;;0.90;92.70;;;;;;5091258;28;21056;-56
2021/04/17 01:02:52;;;;;;;15.77;9.70;;;0.90;92.70;;;;;;5089610;28;20225;-56
2021/04/17 01:05:20;;;;;;;19.40;9.73;;;0.90;92.90;;;;;;5089569;28;20418;-53
2021/04/17 01:07:49;;;;;;;17.63;10.37;;;0.90;92.90;;;;;;5085442;28;20447;-55
2021/04/17 01:10:17;;;;;;;19.33;9.70;;;0.90;92.90;;;;;;5077352;28;20432;-55
2021/04/17 01:12:45;;;;;;;14.83;9.53;;;0.80;92.90;;;;;;5088724;28;20555;-56
2021/04/17 01:15:14;;;;;;;15.83;9.30;;;0.80;93.00;;;;;;5089476;28;20436;-55
2021/04/17 01:17:43;;;;;;;14.90;9.80;;;0.80;93.10;;;;;;5085978;28;20567;-57
2021/04/17 01:20:17;;;;;;;16.30;10.00;;;0.80;93.20;;;;;;5090582;28;20418;-55
2021/04/17 01:22:53;;;;;;;15.97;9.93;;;0.80;93.20;;;;;;5088956;28;20715;-54
2021/04/17 01:25:22;;;;;;;16.83;9.67;;;0.80;93.20;;;;;;5087967;28;20433;-59
2021/04/17 01:27:47;;;;;;;17.10;9.87;;;0.70;93.30;;;;;;5083009;28;20926;-56
2021/04/17 01:30:19;;;;;;;20.33;10.93;;;0.70;93.50;;;;;;5085413;28;20427;-56
2021/04/17 01:32:46;;;;;;;17.90;9.97;;;0.70;93.50;;;;;;5089236;28;20213;-53
2021/04/17 01:35:16;;;;;;;19.00;10.40;;;0.70;93.40;;;;;;5085791;28;20844;-57
2021/04/17 01:37:50;;;;;;;17.20;10.33;;;0.70;93.50;;;;;;5085691;28;20921;-54
2021/04/17 01:40:18;;;;;;;16.30;9.80;;;0.60;93.60;;;;;;5086053;28;20519;-55
2021/04/17 01:42:45;;;;;;;15.97;9.77;;;0.60;93.60;;;;;;5087459;28;20465;-56
2021/04/17 01:45:16;;;;;;;15.03;10.13;;;0.60;93.70;;;;;;5078669;28;20425;-54
2021/04/17 01:47:43;;;;;;;17.87;10.07;;;0.60;94.10;;;;;;5088709;28;20435;-56
2021/04/17 01:50:10;;;;;;;19.53;10.53;;;0.60;94.00;;;;;;5084387;28;20458;-55
2021/04/17 01:52:37;;;;;;;23.50;12.03;;;0.60;94.00;;;;;;5086921;28;20483;-56
2021/04/17 01:55:03;;;;;;;17.37;10.07;;;0.60;94.10;;;;;;5078981;28;20985;-53
2021/04/17 01:57:30;;;;;;;22.00;12.07;;;0.60;93.90;;;;;;5085070;28;21007;-54
2021/04/17 01:59:56;;;;;;;23.90;11.50;;;0.60;93.90;;;;;;5087934;28;20830;-54
2021/04/17 02:02:22;;;;;;;16.33;10.23;;;0.60;93.80;;;;;;5082667;28;20895;-54
2021/04/17 02:04:47;;;;;;;22.30;11.13;;;0.50;93.80;;;;;;5089441;28;20469;-56
2021/04/17 02:07:13;;;;;;;22.67;12.10;;;0.50;93.90;;;;;;5086947;28;20550;-54
2021/04/17 02:09:39;;;;;;;14.67;9.07;;;0.50;93.90;;;;;;5083457;28;20655;-56
2021/04/17 02:12:06;;;;;;;18.90;10.80;;;0.50;94.00;;;;;;5080607;28;20544;-52
2021/04/17 02:14:31;;;;;;;17.50;9.70;;;0.40;94.10;;;;;;5087377;28;20433;-52
2021/04/17 02:17:22;;;;;;;19.07;11.00;;;0.40;94.00;;;;;;5086515;28;20570;-53
2021/04/17 02:19:56;;;;;;;20.20;11.67;;;0.40;93.90;;;;;;5086488;28;20201;-54
2021/04/17 02:22:24;;;;;;;20.43;11.53;;;0.40;94.00;;;;;;5085794;28;20449;-53
2021/04/17 02:24:51;;;;;;;21.13;11.30;;;0.30;94.00;;;;;;5086321;28;20913;-54
2021/04/17 02:27:18;;;;;;;20.13;11.60;;;0.30;94.10;;;;;;5083539;28;20441;-54
2021/04/17 02:29:47;;;;;;;21.30;9.90;;;0.30;94.30;;;;;;5087332;28;20437;-55
2021/04/17 02:32:14;;;;;;;21.37;11.93;;;0.30;94.40;;;;;;5076651;28;20438;-52
2021/04/17 02:34:41;;;;;;;22.90;11.83;;;0.30;94.50;;;;;;5084638;28;20512;-53
2021/04/17 02:37:06;;;;;;;22.30;12.57;;;0.20;94.50;;;;;;5070074;28;20541;-52
2021/04/17 02:39:32;;;;;;;18.03;10.23;;;0.20;94.50;;;;;;5077220;28;20818;-56
2021/04/17 02:41:58;;;;;;;21.30;10.93;;;0.20;94.40;;;;;;5085445;28;20747;-53
2021/04/17 02:44:24;;;;;;;19.40;11.00;;;0.20;94.40;;;;;;5083275;28;20273;-57
2021/04/17 02:46:49;;;;;;;20.80;10.97;;;0.20;94.40;;;;;;5079309;28;20180;-54
2021/04/17 02:49:15;;;;;;;20.00;10.60;;;0.20;94.40;;;;;;5088467;28;20777;-53
2021/04/17 02:51:40;;;;;;;19.23;10.70;;;0.20;94.50;;;;;;5085720;28;20186;-52
2021/04/17 02:54:06;;;;;;;17.70;10.70;;;0.20;94.40;;;;;;5073535;28;20397;-56
2021/04/17 02:56:32;;;;;;;24.43;10.93;;;0.10;94.20;;;;;;5085551;28;20202;-54
2021/04/17 02:58:58;;;;;;;25.63;12.43;;;0.10;94.20;;;;;;5069054;28;20457;-53
2021/04/17 03:01:24;;;;;;;43.77;19.27;;;0.10;94.10;;;;;;5080815;28;20463;-53
2021/04/17 03:03:49;;;;;;;47.93;18.50;;;0.00;94.00;;;;;;5075713;28;20496;-57
2021/04/17 03:06:15;;;;;;;28.00;14.80;;;0.00;94.00;;;;;;5087914;28;20196;-53
2021/04/17 03:08:43;;;;;;;23.33;11.87;;;0.00;94.00;;;;;;5088680;28;20262;-54
2021/04/17 03:11:08;;;;;;;18.20;10.60;;;0.00;93.90;;;;;;5080292;28;20218;-56
2021/04/17 03:13:34;;;;;;;29.20;11.10;;;-0.10;93.90;;;;;;5086070;28;20488;-52
2021/04/17 03:16:00;;;;;;;22.13;10.87;;;-0.10;94.00;;;;;;5088200;28;20222;-52
2021/04/17 03:18:25;;;;;;;24.03;12.00;;;-0.20;94.10;;;;;;5084936;28;20186;-53
2021/04/17 03:20:51;;;;;;;23.40;12.20;;;-0.20;94.40;;;;;;5085231;28;20182;-55
2021/04/17 03:23:17;;;;;;;22.63;11.30;;;-0.20;94.50;;;;;;5087732;28;20254;-53
2021/04/17 03:25:42;;;;;;;18.43;10.33;;;-0.20;94.80;;;;;;5083810;28;20210;-54
2021/04/17 03:28:08;;;;;;;25.07;11.87;;;-0.30;94.80;;;;;;5085756;28;20210;-55
2021/04/17 03:30:34;;;;;;;20.20;11.33;;;-0.30;95.00;;;;;;5082385;28;20258;-54
2021/04/17 03:33:01;;;;;;;24.20;12.20;;;-0.30;95.20;;;;;;5100593;22;20253;-57
2021/04/17 03:35:28;;;;;;;21.90;11.43;;;-0.30;95.50;;;;;;5047228;28;20187;-58
2021/04/17 03:37:54;;;;;;;21.40;11.70;;;-0.30;95.60;;;;;;5048849;28;20462;-58
2021/04/17 03:40:20;;;;;;;22.13;11.63;;;-0.30;95.60;;;;;;5049763;28;20441;-58
2021/04/17 03:42:46;;;;;;;19.20;10.50;;;-0.30;95.60;;;;;;5046848;28;20206;-59
2021/04/17 03:45:13;;;;;;;19.97;11.13;;;-0.30;95.40;;;;;;5049309;28;20412;-58
2021/04/17 03:47:39;;;;;;;18.10;10.43;;;-0.40;95.20;;;;;;5047271;28;20459;-58
2021/04/17 03:50:07;;;;;;;23.47;12.07;;;-0.40;95.20;;;;;;5039493;28;20854;-58
2021/04/17 03:52:34;;;;;;;22.27;12.10;;;-0.40;95.10;;;;;;5046078;28;20445;-58
2021/04/17 03:55:00;;;;;;;20.60;11.30;;;-0.40;95.20;;;;;;5046897;28;20458;-58
2021/04/17 03:57:26;;;;;;;28.67;15.70;;;-0.40;95.20;;;;;;5045145;28;20954;-58
2021/04/17 03:59:51;;;;;;;26.70;13.80;;;-0.40;95.30;;;;;;5033908;28;20727;-58
2021/04/17 04:02:17;;;;;;;26.37;13.87;;;-0.40;95.30;;;;;;5043287;28;20574;-58
2021/04/17 04:04:43;;;;;;;26.40;13.10;;;-0.40;95.20;;;;;;5039724;28;20738;-58
2021/04/17 04:07:09;;;;;;;29.70;13.20;;;-0.40;95.10;;;;;;5047366;28;20178;-58
2021/04/17 04:09:34;;;;;;;34.07;14.90;;;-0.50;94.90;;;;;;5046748;28;20196;-58
2021/04/17 04:12:00;;;;;;;22.70;12.33;;;-0.50;94.90;;;;;;5046448;28;20426;-58
2021/04/17 04:14:26;;;;;;;27.13;13.27;;;-0.50;94.90;;;;;;5048317;28;20528;-58
2021/04/17 04:16:52;;;;;;;36.47;15.43;;;-0.50;94.90;;;;;;5064082;28;20172;-57
2021/04/17 04:19:18;;;;;;;39.33;18.17;;;-0.60;94.70;;;;;;5043738;28;20448;-58
2021/04/17 04:21:44;;;;;;;50.40;19.27;;;-0.60;94.70;;;;;;5046452;28;20293;-58
2021/04/17 04:24:10;;;;;;;45.10;18.30;;;-0.60;94.60;;;;;;5058420;28;20183;-59
2021/04/17 04:26:36;;;;;;;34.10;17.30;;;-0.60;94.60;;;;;;5065409;28;20271;-58
2021/04/17 04:29:03;;;;;;;37.37;17.23;;;-0.70;94.50;;;;;;5065998;28;20433;-61
2021/04/17 04:31:32;;;;;;;42.20;18.63;;;-0.70;94.50;;;;;;5068300;28;20494;-60
2021/04/17 04:33:58;;;;;;;27.00;13.87;;;-0.70;94.50;;;;;;5069250;28;20458;-62
2021/04/17 04:36:23;;;;;;;25.00;13.67;;;-0.70;94.70;;;;;;5059632;28;20453;-60
2021/04/17 04:38:49;;;;;;;30.63;13.50;;;-0.70;94.70;;;;;;5037444;28;20176;-58
2021/04/17 04:41:15;;;;;;;33.10;13.50;;;-0.70;94.70;;;;;;5038118;28;20223;-59
2021/04/17 04:43:40;;;;;;;20.97;11.60;;;-0.70;94.60;;;;;;5043863;28;20200;-58
2021/04/17 04:46:06;;;;;;;23.07;12.30;;;-0.70;94.50;;;;;;5043488;28;20252;-66
2021/04/17 04:48:32;;;;;;;24.53;12.80;;;-0.70;94.50;;;;;;5043820;28;20253;-58
2021/04/17 04:50:58;;;;;;;22.87;12.07;;;-0.70;94.40;;;;;;5042669;28;20192;-59
2021/04/17 04:53:23;;;;;;;25.77;12.23;;;-0.70;94.40;;;;;;5047781;28;20222;-59
2021/04/17 04:55:49;;;;;;;20.80;11.70;;;-0.70;94.40;;;;;;5043984;28;20865;-58
2021/04/17 04:58:15;;;;;;;23.53;11.47;;;-0.70;94.50;;;;;;5033720;28;20175;-59
2021/04/17 05:00:41;;;;;;;25.27;13.30;;;-0.70;94.50;;;;;;5061055;28;20190;-59
2021/04/17 05:03:06;;;;;;;25.60;12.70;;;-0.70;94.40;;;;;;5042187;28;20701;-58
2021/04/17 05:05:32;;;;;;;25.87;13.30;;;-0.70;94.30;;;;;;5045332;28;20524;-58
2021/04/17 05:07:58;;;;;;;22.93;11.97;;;-0.70;94.20;;;;;;5050318;28;20774;-58
2021/04/17 05:10:24;;;;;;;21.83;11.80;;;-0.70;94.10;;;;;;5050868;28;20174;-59
2021/04/17 05:12:49;;;;;;;25.57;13.10;;;-0.70;94.00;;;;;;5052101;28;20193;-58
2021/04/17 05:15:15;;;;;;;27.50;12.17;;;-0.70;94.00;;;;;;5050528;28;21233;-60
2021/04/17 05:17:40;;;;;;;26.13;13.00;;;-0.70;93.90;;;;;;5064515;28;20195;-58
2021/04/17 05:20:07;;;;;;;24.83;12.60;;;-0.70;93.90;;;;;;5048238;28;20174;-59
2021/04/17 05:22:33;;;;;;;24.50;12.73;;;-0.70;94.00;;;;;;5042376;28;20240;-60
2021/04/17 05:24:59;;;;;;;26.13;12.23;;;-0.70;94.00;;;;;;5049362;28;20499;-59
2021/04/17 05:27:24;;;;;;;25.67;13.00;;;-0.60;94.10;;;;;;5045364;28;20427;-59
2021/04/17 05:29:52;;;;;;;32.70;13.70;;;-0.60;94.00;;;;;;5043918;28;20426;-59
2021/04/17 05:32:18;;;;;;;26.80;13.07;;;-0.50;94.10;;;;;;5050041;28;20650;-59
2021/04/17 05:34:44;;;;;;;23.27;13.13;;;-0.50;94.10;;;;;;5042110;28;20463;-60
2021/04/17 05:37:09;;;;;;;28.40;12.63;;;-0.50;94.10;;;;;;5044046;28;20708;-60
2021/04/17 05:39:36;;;;;;;23.70;12.83;;;-0.50;94.20;;;;;;5044793;28;20225;-60
2021/04/17 05:42:01;;;;;;;33.23;13.27;;;-0.40;94.50;;;;;;5049182;28;20699;-58
2021/04/17 05:44:27;;;;;;;24.80;13.77;;;-0.30;94.60;;;;;;5047330;28;20447;-60
2021/04/17 05:46:53;;;;;;;25.43;13.97;;;-0.30;94.60;;;;;;5046409;28;20187;-58
2021/04/17 05:49:18;;;;;;;27.30;14.43;;;-0.20;94.80;;;;;;5043360;28;20165;-59
2021/04/17 05:51:44;;;;;;;28.30;13.53;;;-0.10;94.80;;;;;;5046229;28;20441;-59
2021/04/17 05:54:11;;;;;;;27.97;15.77;;;-0.10;94.50;;;;;;5046263;28;20208;-59
2021/04/17 05:56:38;;;;;;;51.77;20.50;;;0.00;94.40;;;;;;5045326;28;20427;-58
2021/04/17 05:59:04;;;;;;;34.53;16.60;;;0.00;94.30;;;;;;5041270;28;20436;-60
2021/04/17 06:01:30;;;;;;;34.63;16.17;;;0.10;94.20;;;;;;5045852;28;20557;-59
2021/04/17 06:03:56;;;;;;;30.00;14.57;;;0.10;94.40;;;;;;5044288;28;20447;-59
2021/04/17 06:06:22;;;;;;;29.90;14.93;;;0.20;94.40;;;;;;5042918;28;20968;-58
2021/04/17 06:08:47;;;;;;;33.63;14.67;;;0.30;94.40;;;;;;5042816;28;20184;-60
2021/04/17 06:11:15;;;;;;;29.60;15.70;;;0.30;94.20;;;;;;5043334;28;20187;-59
2021/04/17 06:13:41;;;;;;;32.97;16.10;;;0.40;94.20;;;;;;5044904;28;20228;-60
2021/04/17 06:16:08;;;;;;;28.20;14.80;;;0.50;94.30;;;;;;5044038;28;20466;-59
2021/04/17 06:18:34;;;;;;;37.80;16.00;;;0.50;94.30;;;;;;5042922;28;20442;-59
2021/04/17 06:20:59;;;;;;;24.93;13.73;;;0.60;94.20;;;;;;5043429;28;20445;-60
2021/04/17 06:23:25;;;;;;;27.53;15.00;;;0.70;94.10;;;;;;5044744;28;20383;-61
2021/04/17 06:25:51;;;;;;;26.93;15.20;;;0.70;93.90;;;;;;5040734;28;20183;-60
2021/04/17 06:28:17;;;;;;;31.63;16.40;;;0.80;94.10;;;;;;5043470;28;20175;-60
2021/04/17 06:30:43;;;;;;;28.57;14.57;;;0.90;93.90;;;;;;5056775;28;20267;-60
2021/04/17 06:33:09;;;;;;;27.30;14.93;;;1.00;93.90;;;;;;5041452;28;20525;-61
2021/04/17 06:35:35;;;;;;;30.60;16.77;;;1.00;93.90;;;;;;5043534;28;20177;-59
2021/04/17 06:38:01;;;;;;;30.67;15.90;;;1.10;94.00;;;;;;5046026;28;20527;-60
2021/04/17 06:40:27;;;;;;;29.17;14.83;;;1.20;93.70;;;;;;5038894;28;20935;-59
2021/04/17 06:42:54;;;;;;;29.70;16.10;;;1.30;93.40;;;;;;5038752;28;21140;-60
2021/04/17 06:45:22;;;;;;;31.60;16.50;;;1.40;92.90;;;;;;5047234;28;20176;-60
2021/04/17 06:47:49;;;;;;;27.97;15.70;;;1.50;93.30;;;;;;5049170;28;20502;-59
2021/04/17 06:50:15;;;;;;;28.03;15.70;;;1.60;93.50;;;;;;5042780;28;20424;-60
2021/04/17 06:52:43;;;;;;;27.57;15.80;;;1.70;93.80;;;;;;5046053;28;20500;-60
2021/04/17 06:55:10;;;;;;;35.20;15.60;;;1.90;93.30;;;;;;5042662;28;20432;-61
2021/04/17 06:57:37;;;;;;;33.40;17.67;;;1.90;93.10;;;;;;5048535;28;20427;-60
2021/04/17 07:00:07;;;;;;;37.63;18.63;;;2.00;93.20;;;;;;5046894;28;20490;-60
2021/04/17 07:02:33;;;;;;;30.30;17.10;;;2.20;93.20;;;;;;5041466;28;20467;-59
2021/04/17 07:04:59;;;;;;;32.60;16.80;;;2.30;92.30;;;;;;5041130;28;20444;-59
2021/04/17 07:07:29;;;;;;;32.00;16.17;;;2.50;92.20;;;;;;5043817;28;21438;-60
2021/04/17 07:09:55;;;;;;;32.17;15.77;;;2.60;92.00;;;;;;5036970;28;20425;-60
2021/04/17 07:12:20;;;;;;;28.93;15.07;;;2.80;92.40;;;;;;5045689;28;20424;-60
2021/04/17 07:14:52;;;;;;;34.90;16.23;;;2.90;91.80;;;;;;5044449;28;20204;-56
2021/04/17 07:17:20;;;;;;;33.40;17.13;;;3.10;91.70;;;;;;5040288;28;20192;-57
2021/04/17 07:19:56;;;;;;;30.10;17.20;;;3.20;91.90;;;;;;5035302;28;20421;-61
2021/04/17 07:22:34;;;;;;;31.10;16.10;;;3.50;91.90;;;;;;5038725;28;22574;-57
2021/04/17 07:25:05;;;;;;;31.90;16.40;;;3.70;91.70;;;;;;5038499;28;20948;-58
2021/04/17 07:27:49;;;;;;;28.77;16.07;;;3.90;90.70;;;;;;5041432;28;20430;-61
2021/04/17 07:30:14;;;;;;;28.50;15.10;;;4.00;90.20;;;;;;5039211;28;20417;-61
2021/04/17 07:32:48;;;;;;;31.77;15.53;;;4.20;89.80;;;;;;5034852;28;20423;-58
2021/04/17 07:35:17;;;;;;;26.43;14.47;;;4.40;87.80;;;;;;5038644;28;20266;-60
2021/04/17 07:37:45;;;;;;;30.87;14.77;;;4.40;88.20;;;;;;5043450;28;20859;-60
2021/04/17 07:40:25;;;;;;;24.10;12.33;;;4.60;87.50;;;;;;5047408;28;20770;-60
2021/04/17 07:42:54;;;;;;;29.17;14.90;;;4.70;85.80;;;;;;5047018;28;20488;-58
2021/04/17 07:45:28;;;;;;;24.73;12.97;;;4.80;83.20;;;;;;5042621;28;20445;-59
2021/04/17 07:47:59;;;;;;;22.40;12.77;;;5.00;81.30;;;;;;5049633;28;20448;-60
2021/04/17 07:50:31;;;;;;;19.83;11.07;;;5.10;80.20;;;;;;5046681;28;20486;-60
2021/04/17 07:52:58;;;;;;;21.83;12.20;;;5.10;77.80;;;;;;5062997;28;20469;-60
2021/04/17 07:55:27;;;;;;;20.90;11.60;;;5.10;77.50;;;;;;5047475;28;20426;-60
2021/04/17 07:57:56;;;;;;;24.40;12.43;;;5.20;77.40;;;;;;5045455;28;21022;-60
2021/04/17 08:00:23;;;;;;;18.30;10.63;;;5.30;75.90;;;;;;5041385;28;20432;-60
2021/04/17 08:02:52;;;;;;;21.70;11.80;;;5.30;76.30;;;;;;5063320;28;20465;-60
2021/04/17 08:05:19;;;;;;;18.30;10.50;;;5.50;74.40;;;;;;5038518;28;20512;-59
2021/04/17 08:07:45;;;;;;;17.03;10.37;;;5.50;74.10;;;;;;5038809;28;20419;-60
2021/04/17 08:10:12;;;;;;;17.57;9.70;;;5.60;75.60;;;;;;5036899;28;20429;-57
2021/04/17 08:12:45;;;;;;;18.07;9.90;;;5.70;71.30;;;;;;5042213;28;20417;-61
2021/04/17 08:15:16;;;;;;;16.40;9.63;;;5.70;69.90;;;;;;5042002;28;20435;-60
2021/04/17 08:17:43;;;;;;;19.70;9.97;;;5.70;67.80;;;;;;5041354;28;20426;-61
2021/04/17 08:20:10;;;;;;;17.30;10.07;;;5.70;67.70;;;;;;5042211;28;20457;-59
2021/04/17 08:22:37;;;;;;;16.90;9.57;;;5.70;68.50;;;;;;5038061;28;20449;-60
2021/04/17 08:25:04;;;;;;;25.10;9.87;;;5.80;68.80;;;;;;5042864;28;20457;-59
2021/04/17 08:27:31;;;;;;;16.60;9.00;;;5.80;69.60;;;;;;5034618;28;20998;-61
2021/04/17 08:29:57;;;;;;;16.43;8.70;;;5.70;68.80;;;;;;5040147;28;20431;-61
2021/04/17 08:32:24;;;;;;;14.40;9.10;;;5.70;69.90;;;;;;5045468;28;20434;-59
2021/04/17 08:35:09;;;;;;;14.60;7.97;;;5.60;72.60;;;;;;5030667;28;20501;-61
2021/04/17 08:37:55;;;;;;;10.80;7.33;;;5.70;73.80;;;;;;5036703;28;20441;-66
2021/04/17 08:40:35;;;;;;;12.17;7.90;;;5.70;73.20;;;;;;5053608;28;20567;-62
2021/04/17 08:43:22;;;;;;;10.40;6.80;;;5.80;73.20;;;;;;5045399;28;20468;-61
2021/04/17 08:46:11;;;;;;;12.20;7.23;;;5.90;71.20;;;;;;5042950;28;20444;-61
2021/04/17 08:48:58;;;;;;;12.10;6.97;;;5.90;70.80;;;;;;5047216;28;20459;-62
2021/04/17 08:51:26;;;;;;;10.27;6.20;;;6.00;70.50;;;;;;5041790;28;20865;-60
2021/04/17 08:54:12;;;;;;;9.57;6.60;;;5.90;69.20;;;;;;5039900;28;20496;-61
2021/04/17 08:56:48;;;;;;;16.07;7.70;;;5.90;70.10;;;;;;5043453;28;20421;-60
2021/04/17 08:59:19;;;;;;;12.30;6.73;;;5.80;68.80;;;;;;5047291;28;20433;-60
2021/04/17 09:01:46;;;;;;;13.73;7.33;;;5.90;70.90;;;;;;5042035;28;20872;-61
2021/04/17 09:04:12;;;;;;;9.80;7.10;;;5.90;70.70;;;;;;5049061;28;20457;-61
2021/04/17 09:06:48;;;;;;;10.80;6.80;;;6.00;70.20;;;;;;5045240;28;20441;-61
2021/04/17 09:09:20;;;;;;;10.07;6.03;;;6.20;69.50;;;;;;5042343;28;20835;-63
2021/04/17 09:11:48;;;;;;;11.93;5.67;;;6.40;66.90;;;;;;5038496;28;20980;-61
2021/04/17 09:14:26;;;;;;;10.80;6.90;;;6.60;63.30;;;;;;5039332;28;20473;-64
2021/04/17 09:16:53;;;;;;;10.20;5.93;;;6.60;60.60;;;;;;5037748;28;21166;-60
2021/04/17 09:19:41;;;;;;;20.50;6.30;;;6.50;60.40;;;;;;5040554;28;20461;-61
2021/04/17 09:24:56;;;;;;;10.60;6.20;;;6.30;60.30;;;;;;5042439;28;20437;-61
2021/04/17 09:27:23;;;;;;;11.23;6.77;;;6.20;61.50;;;;;;5041680;28;20430;-62
2021/04/17 09:30:06;;;;;;;10.17;6.40;;;6.20;61.90;;;;;;5041436;28;20472;-61
2021/04/17 09:32:44;;;;;;;12.43;7.20;;;6.10;62.00;;;;;;5037977;28;20525;-61
2021/04/17 09:35:13;;;;;;;14.80;8.27;;;6.10;63.50;;;;;;5044155;28;20534;-61
2021/04/17 09:37:39;;;;;;;14.30;5.93;;;6.20;64.10;;;;;;5044585;28;20445;-62
2021/04/17 09:40:06;;;;;;;14.27;8.07;;;6.20;64.40;;;;;;5043644;28;20452;-62
2021/04/17 09:42:34;;;;;;;11.83;7.43;;;6.20;63.20;;;;;;5045127;28;20512;-61
2021/04/17 09:45:00;;;;;;;13.50;7.40;;;6.10;62.90;;;;;;5045655;28;20872;-60
2021/04/17 09:47:26;;;;;;;14.10;8.00;;;6.20;63.90;;;;;;5037307;28;20460;-60
2021/04/17 09:49:54;;;;;;;15.47;8.33;;;6.30;62.30;;;;;;5041628;28;20534;-61
2021/04/17 09:52:22;;;;;;;14.70;8.03;;;6.50;61.50;;;;;;5043823;28;20480;-61
2021/04/17 09:55:04;;;;;;;14.23;7.33;;;6.60;59.70;;;;;;5044343;28;20465;-61
2021/04/17 09:57:30;;;;;;;9.93;6.20;;;6.70;59.20;;;;;;5045770;28;20434;-61
2021/04/17 10:00:03;;;;;;;11.77;7.13;;;6.80;58.70;;;;;;5041118;28;20445;-62
2021/04/17 10:02:55;;;;;;;11.40;7.03;;;6.70;58.30;;;;;;5054028;28;21917;-59
2021/04/17 10:05:34;;;;;;;13.73;7.30;;;6.60;58.30;;;;;;5037014;28;20474;-61
2021/04/17 10:08:00;;;;;;;14.30;7.37;;;6.60;59.50;;;;;;5036808;28;20438;-61
2021/04/17 10:10:35;;;;;;;10.83;6.70;;;6.50;59.40;;;;;;5040972;28;20560;-61
2021/04/17 10:13:01;;;;;;;11.90;7.30;;;6.50;59.20;;;;;;5065104;28;20179;-61
2021/04/17 10:15:29;;;;;;;10.60;6.70;;;6.40;58.50;;;;;;5049508;28;20413;-60
2021/04/17 10:18:00;;;;;;;12.83;7.13;;;6.40;59.20;;;;;;5047958;28;20179;-61
2021/04/17 10:20:27;;;;;;;12.27;7.47;;;6.40;59.30;;;;;;5049227;28;20464;-61
2021/04/17 10:22:55;;;;;;;13.17;7.90;;;6.40;58.80;;;;;;5040995;28;20851;-61
2021/04/17 10:25:41;;;;;;;15.73;8.10;;;6.40;57.80;;;;;;5048111;28;20574;-61
2021/04/17 10:28:17;;;;;;;17.17;8.90;;;6.40;56.90;;;;;;5046614;28;20421;-61
2021/04/17 10:30:45;;;;;;;19.63;9.30;;;6.40;56.80;;;;;;5040385;28;20755;-61
2021/04/17 10:33:19;;;;;;;13.00;8.60;;;6.40;56.70;;;;;;5050794;28;20988;-61
2021/04/17 10:35:46;;;;;;;18.17;9.43;;;6.40;56.60;;;;;;5044243;28;20801;-61
2021/04/17 10:38:25;;;;;;;15.23;9.20;;;6.30;57.20;;;;;;5041549;28;20864;-61
2021/04/17 10:40:52;;;;;;;13.07;9.40;;;6.30;58.30;;;;;;5049976;28;20409;-61
2021/04/17 10:43:19;;;;;;;16.40;10.40;;;6.40;58.90;;;;;;5030334;28;20475;-61
2021/04/17 10:45:47;;;;;;;18.43;10.07;;;6.40;59.30;;;;;;5046778;28;20414;-61
2021/04/17 10:48:17;;;;;;;20.47;10.70;;;6.50;59.60;;;;;;5046737;28;20421;-61
2021/04/17 10:51:07;;;;;;;14.10;10.00;;;6.60;59.40;;;;;;5049550;28;20413;-61
2021/04/17 10:53:38;;;;;;;15.27;9.03;;;6.60;57.80;;;;;;5046791;28;21140;-61
2021/04/17 10:56:22;;;;;;;11.70;8.30;;;6.60;57.50;;;;;;5047784;28;20525;-61
2021/04/17 10:59:04;;;;;;;16.90;10.30;;;6.50;57.30;;;;;;5034283;28;20472;-61
2021/04/17 11:01:38;;;;;;;17.30;10.30;;;6.50;57.00;;;;;;5041034;28;20830;-60
2021/04/17 11:04:05;;;;;;;15.47;9.50;;;6.50;56.90;;;;;;5040019;28;20500;-61
2021/04/17 11:06:37;;;;;;;13.97;9.27;;;6.50;57.10;;;;;;5037189;28;20947;-61
2021/04/17 11:09:05;;;;;;;13.23;8.97;;;6.60;57.00;;;;;;5041080;28;20418;-62
2021/04/17 11:11:31;;;;;;;16.57;10.07;;;6.60;57.20;;;;;;5048389;28;20961;-61
2021/04/17 11:14:00;;;;;;;14.50;9.73;;;6.60;56.70;;;;;;5048715;28;21380;-60
2021/04/17 11:16:36;;;;;;;15.10;11.43;;;6.60;57.50;;;;;;5048238;28;20451;-61
2021/04/17 11:19:02;;;;;;;15.50;9.63;;;6.50;58.20;;;;;;5046765;28;20514;-61
2021/04/17 11:21:28;;;;;;;21.53;14.30;;;6.50;59.40;;;;;;5050195;28;20556;-61
2021/04/17 11:24:00;;;;;;;19.93;11.53;;;6.40;59.60;;;;;;5046160;28;20552;-61
2021/04/17 11:26:29;;;;;;;21.00;11.50;;;6.40;60.00;;;;;;5050294;28;20143;-61
2021/04/17 11:29:00;;;;;;;16.43;10.30;;;6.30;60.00;;;;;;5046819;28;20437;-61
2021/04/17 11:31:31;;;;;;;20.47;11.80;;;6.30;60.30;;;;;;5043877;28;20421;-61
2021/04/17 11:34:00;;;;;;;23.30;12.10;;;6.30;60.10;;;;;;5043850;28;20465;-61
2021/04/17 11:36:30;;;;;;;17.33;10.80;;;6.30;60.20;;;;;;5039941;28;20425;-61
2021/04/17 11:38:56;;;;;;;16.77;11.63;;;6.40;60.00;;;;;;5046732;28;20437;-61
2021/04/17 11:41:24;;;;;;;12.80;9.50;;;6.40;60.30;;;;;;5050953;28;20479;-61
2021/04/17 11:43:50;;;;;;;17.57;10.30;;;6.60;59.60;;;;;;5036899;28;20441;-61
2021/04/17 11:46:17;;;;;;;20.83;10.57;;;6.80;59.60;;;;;;5047870;28;20949;-59
2021/04/17 11:48:47;;;;;;;14.93;10.17;;;7.00;59.20;;;;;;5042373;28;20182;-61
2021/04/17 11:51:13;;;;;;;18.13;10.90;;;7.20;58.30;;;;;;5047263;28;20727;-61
2021/04/17 11:53:39;;;;;;;14.93;10.33;;;7.40;57.20;;;;;;5044591;28;20797;-60
2021/04/17 11:56:05;;;;;;;15.50;10.37;;;7.50;56.80;;;;;;5048460;28;20252;-61
2021/04/17 11:58:31;;;;;;;16.53;10.50;;;7.60;56.30;;;;;;5047125;28;20248;-61
2021/04/17 12:00:57;;;;;;;12.60;9.43;;;7.70;55.30;;;;;;5047516;28;20417;-61
2021/04/17 12:03:23;;;;;;;14.23;9.60;;;7.70;55.00;;;;;;5046155;28;20853;-61
2021/04/17 12:05:50;;;;;;;15.73;10.10;;;7.70;53.80;;;;;;5037395;28;20433;-61
2021/04/17 12:08:16;;;;;;;14.70;8.70;;;7.70;53.00;;;;;;5033946;28;20985;-61
2021/04/17 12:10:42;;;;;;;10.83;8.03;;;7.60;53.10;;;;;;5051407;28;20495;-59
2021/04/17 12:13:08;;;;;;;13.10;9.10;;;7.60;53.70;;;;;;5052278;28;20202;-61
2021/04/17 12:15:33;;;;;;;16.20;8.70;;;7.50;53.60;;;;;;5045129;28;20442;-61
2021/04/17 12:17:59;;;;;;;11.60;8.47;;;7.60;53.40;;;;;;5052712;28;20664;-62
2021/04/17 12:20:25;;;;;;;12.97;8.80;;;7.60;53.50;;;;;;5048657;28;20771;-59
2021/04/17 12:22:51;;;;;;;14.63;8.70;;;7.60;53.00;;;;;;5049364;28;20241;-60
2021/04/17 12:25:18;;;;;;;9.50;6.77;;;7.60;53.60;;;;;;5050129;28;20181;-60
2021/04/17 12:27:44;;;;;;;15.77;7.70;;;7.60;53.10;;;;;;5053260;28;20254;-60
2021/04/17 12:30:10;;;;;;;15.70;8.10;;;7.60;52.60;;;;;;5049262;28;21036;-61
2021/04/17 12:32:37;;;;;;;13.10;6.80;;;7.50;52.30;;;;;;5050284;28;20956;-61
2021/04/17 12:35:04;;;;;;;11.43;7.40;;;7.40;52.90;;;;;;5052533;28;20783;-66
2021/04/17 12:37:29;;;;;;;10.30;7.20;;;7.40;53.10;;;;;;5057412;28;20488;-59
2021/04/17 12:39:55;;;;;;;10.00;7.00;;;7.30;53.20;;;;;;5048823;28;20820;-59
2021/04/17 12:42:21;;;;;;;10.30;7.03;;;7.30;53.30;;;;;;5053905;28;20205;-60
2021/04/17 12:44:46;;;;;;;9.53;7.17;;;7.30;53.00;;;;;;5046753;28;20217;-60
2021/04/17 12:47:12;;;;;;;11.27;7.27;;;7.30;52.70;;;;;;5043560;28;20185;-60